aviador You're here:

KTDR Decoded Metar

in
Report Time2017-04-27 15:56:00
UTC Time2017-04-27 16:59:54
Flight Rules ifr IFR
Wind180° at 13 Gusting to 22 kt
W.Rank180° ranks 16
Current wind is above 180° avg. (8.7)
Visibility9999 m
Phenomena:N/A
Clouds:Broken 008 Hf
Expected CloudBase > 800 ft AGL from Temp-Dew spread
Ceiling800 ft
Temp26°C
Dew Point24°C (89% RH)
QNH1012 hPa
Raw Report
KTDR 271556Z AUTO 18013G22KT 7SM BKN008 26/24 A2989 RMK AO2 PK WND
20028/17 SLP125 T02620237 $=

Extra information for KTDR:More info

Social comments